createdAt,value
2022-12-23T00:01:01.456Z,100184.28
2022-12-23T00:06:49.085Z,100188.88
2022-12-23T00:12:54.612Z,100198.22
2022-12-23T00:18:43.987Z,100192.69
2022-12-23T00:24:30.682Z,100185.69
2022-12-23T00:30:17.337Z,100195.56
2022-12-23T00:36:27.689Z,100193.22
2022-12-23T00:42:33.217Z,100196.63
2022-12-23T00:48:38.988Z,100206.00
2022-12-23T00:54:25.844Z,100224.72
2022-12-23T01:00:13.087Z,100238.00
2022-12-23T01:06:03.315Z,100248.97
2022-12-23T01:11:49.925Z,100240.94
2022-12-23T01:17:36.685Z,100253.16
2022-12-23T01:23:23.278Z,100235.44
2022-12-23T01:29:15.958Z,100200.88
2022-12-23T01:35:02.639Z,100212.25
2022-12-23T01:40:49.293Z,100213.06
2022-12-23T01:46:38.736Z,100204.91
2022-12-23T01:52:32.070Z,100195.88
2022-12-23T01:58:39.316Z,100213.22
2022-12-23T02:04:27.015Z,100205.53
2022-12-23T02:10:19.820Z,100205.50
2022-12-23T02:16:16.632Z,100197.69
2022-12-23T02:22:29.745Z,100204.84
2022-12-23T02:28:28.629Z,100214.63
2022-12-23T02:34:36.493Z,100221.72
2022-12-23T02:40:26.091Z,100205.72
2022-12-23T02:46:19.223Z,100200.47
2022-12-23T02:52:15.363Z,100191.13
2022-12-23T02:58:07.192Z,100204.13
2022-12-23T03:03:54.145Z,100197.00
2022-12-23T03:10:06.780Z,100202.84
2022-12-23T03:16:28.269Z,100204.25
2022-12-23T03:22:23.930Z,100204.47
2022-12-23T03:28:27.179Z,100217.31
2022-12-23T03:34:23.196Z,100214.16
2022-12-23T03:40:42.584Z,100204.75
2022-12-23T03:47:05.670Z,100189.59
2022-12-23T03:53:31.753Z,100211.91
2022-12-23T03:59:27.855Z,100215.78
2022-12-23T04:05:23.054Z,100201.56
2022-12-23T04:11:09.996Z,100184.03
2022-12-23T04:16:58.460Z,100162.22
2022-12-23T04:22:45.179Z,100140.84
2022-12-23T04:28:40.442Z,100138.63
2022-12-23T04:34:29.562Z,100128.31
2022-12-23T04:40:20.828Z,100147.75
2022-12-23T04:46:12.900Z,100151.13
2022-12-23T04:52:02.226Z,100118.56
2022-12-23T04:57:48.907Z,100128.13
2022-12-23T05:03:36.972Z,100118.88
2022-12-23T05:09:26.817Z,100107.72
2022-12-23T05:15:30.709Z,100106.56
2022-12-23T05:21:18.214Z,100086.94
2022-12-23T05:27:04.790Z,100070.97
2022-12-23T05:32:55.773Z,100061.88
2022-12-23T05:38:45.521Z,100069.69
2022-12-23T05:44:32.273Z,100056.75
2022-12-23T05:50:20.717Z,100025.34
2022-12-23T05:56:08.812Z,100018.25
2022-12-23T06:01:55.810Z,100019.63
2022-12-23T06:07:50.756Z,100037.66
2022-12-23T06:13:40.934Z,100009.81
2022-12-23T06:19:34.849Z,99995.19
2022-12-23T06:25:22.082Z,99960.28
2022-12-23T06:31:08.740Z,99962.50
2022-12-23T06:36:55.485Z,99944.84
2022-12-23T06:42:42.349Z,99958.06
2022-12-23T06:48:29.201Z,99936.38
2022-12-23T06:54:16.217Z,99896.34
2022-12-23T07:00:04.625Z,99873.81
2022-12-23T07:05:55.744Z,99875.72
2022-12-23T07:11:42.563Z,99874.97
2022-12-23T07:17:30.061Z,99876.66
2022-12-23T07:23:17.154Z,99880.94
2022-12-23T07:29:04.602Z,99853.19
2022-12-23T07:34:51.406Z,99840.84
2022-12-23T07:40:38.113Z,99840.75
2022-12-23T07:46:24.855Z,99843.56
2022-12-23T07:52:11.657Z,99827.84
2022-12-23T07:57:58.311Z,99822.13
2022-12-23T08:03:45.867Z,99790.16
2022-12-23T08:09:32.581Z,99762.13
2022-12-23T08:15:19.684Z,99773.50
2022-12-23T08:21:11.055Z,99752.13
2022-12-23T08:26:58.278Z,99748.59
2022-12-23T08:32:44.953Z,99719.06
2022-12-23T08:38:31.615Z,99745.91
2022-12-23T08:44:18.500Z,99710.31
2022-12-23T08:50:05.695Z,99657.56
2022-12-23T08:55:52.351Z,99676.47
2022-12-23T09:01:39.163Z,99660.63
2022-12-23T09:07:25.893Z,99650.66
2022-12-23T09:13:18.554Z,99631.88
2022-12-23T09:19:14.638Z,99612.28
2022-12-23T09:25:05.034Z,99616.03
2022-12-23T09:30:53.149Z,99627.38
2022-12-23T09:36:40.113Z,99648.94
2022-12-23T09:42:27.213Z,99610.34
2022-12-23T09:48:18.726Z,99642.25
2022-12-23T09:54:13.413Z,99633.59
2022-12-23T10:00:10.639Z,99637.63
2022-12-23T10:06:08.209Z,99620.25
2022-12-23T10:11:55.711Z,99616.78
2022-12-23T10:17:43.600Z,99626.13
2022-12-23T10:23:37.461Z,99611.75
2022-12-23T10:29:31.266Z,99608.88
2022-12-23T10:35:20.815Z,99600.56
2022-12-23T10:41:15.308Z,99593.31
2022-12-23T10:47:14.244Z,99594.28
2022-12-23T10:53:05.341Z,99596.00
2022-12-23T10:58:57.601Z,99595.53
2022-12-23T11:04:48.909Z,99594.00
2022-12-23T11:10:36.092Z,99597.31
2022-12-23T11:16:26.182Z,99603.66
2022-12-23T11:22:25.172Z,99618.03
2022-12-23T11:28:11.841Z,99621.75
2022-12-23T11:34:16.747Z,99615.97
2022-12-23T11:40:14.892Z,99626.25
2022-12-23T11:46:36.895Z,99625.78
2022-12-23T11:52:25.720Z,99614.22
2022-12-23T11:58:19.066Z,99609.78
2022-12-23T12:04:19.020Z,99617.38
2022-12-23T12:10:17.080Z,99608.44
2022-12-23T12:16:28.584Z,99589.50
2022-12-23T12:22:26.731Z,99577.25
2022-12-23T12:28:32.070Z,99579.94
2022-12-23T12:34:18.915Z,99589.22
2022-12-23T12:40:28.693Z,99600.31
2022-12-23T12:46:18.673Z,99604.56
2022-12-23T12:52:13.043Z,99595.84
2022-12-23T12:58:02.775Z,99601.16
2022-12-23T13:04:14.864Z,99602.63
2022-12-23T13:10:23.513Z,99593.41
2022-12-23T13:16:20.815Z,99579.19
2022-12-23T13:22:28.424Z,99573.94
2022-12-23T13:28:33.432Z,99582.28
2022-12-23T13:34:57.749Z,99596.47
2022-12-23T13:41:10.174Z,99597.09
2022-12-23T13:47:12.208Z,99608.44
2022-12-23T13:53:09.640Z,99605.59
2022-12-23T13:58:57.497Z,99609.25
2022-12-23T14:05:02.884Z,99624.63
2022-12-23T14:10:57.284Z,99616.91
2022-12-23T14:17:16.327Z,99615.63
2022-12-23T14:23:30.788Z,99632.19
2022-12-23T14:29:32.736Z,99668.31
2022-12-23T14:35:27.296Z,99669.34
2022-12-23T14:41:22.571Z,99674.09
2022-12-23T14:47:35.836Z,99681.16
2022-12-23T14:53:29.623Z,99687.28
2022-12-23T14:59:33.260Z,99716.06
2022-12-23T15:05:24.584Z,99761.69
2022-12-23T15:11:26.008Z,99771.34
2022-12-23T15:17:25.174Z,99774.75
2022-12-23T15:23:16.220Z,99782.06
2022-12-23T15:29:07.191Z,99800.16
2022-12-23T15:35:05.053Z,99806.84
2022-12-23T15:41:04.915Z,99797.31
2022-12-23T15:46:55.821Z,99818.53
2022-12-23T15:52:48.490Z,99811.06
2022-12-23T15:58:39.628Z,99803.75
2022-12-23T16:04:29.263Z,99825.53
2022-12-23T16:10:20.742Z,99853.53
2022-12-23T16:16:36.938Z,99847.25
2022-12-23T16:22:33.213Z,99883.56
2022-12-23T16:28:29.670Z,99876.00
2022-12-23T16:34:16.543Z,99897.53
2022-12-23T16:40:14.747Z,99884.84
2022-12-23T16:46:02.226Z,99907.59
2022-12-23T16:51:49.608Z,99912.88
2022-12-23T16:57:36.441Z,99936.16
2022-12-23T17:03:23.892Z,99924.44
2022-12-23T17:09:11.948Z,99933.59
2022-12-23T17:14:59.032Z,99945.81
2022-12-23T17:20:48.504Z,99965.03
2022-12-23T17:26:35.400Z,99960.63
2022-12-23T17:32:26.823Z,99963.44
2022-12-23T17:38:16.075Z,99975.09
2022-12-23T17:44:03.180Z,99985.91
2022-12-23T17:49:50.557Z,99988.84
2022-12-23T17:55:41.694Z,99977.31
2022-12-23T18:01:31.585Z,99982.59
2022-12-23T18:07:20.054Z,99991.22
2022-12-23T18:13:18.769Z,100000.94
2022-12-23T18:19:17.550Z,99998.28
2022-12-23T18:25:05.085Z,100007.72
2022-12-23T18:30:54.761Z,100020.28
2022-12-23T18:36:42.096Z,100032.16
2022-12-23T18:42:28.940Z,100033.03
2022-12-23T18:48:15.829Z,100031.09
2022-12-23T18:54:02.633Z,100062.28
2022-12-23T18:59:49.707Z,100061.13
2022-12-23T19:05:37.117Z,100061.53
2022-12-23T19:11:26.286Z,100088.41
2022-12-23T19:17:13.246Z,100092.41
2022-12-23T19:23:00.098Z,100098.63
2022-12-23T19:28:48.668Z,100119.28
2022-12-23T19:34:37.003Z,100120.94
2022-12-23T19:40:25.127Z,100125.53
2022-12-23T19:46:16.578Z,100127.75
2022-12-23T19:52:03.889Z,100144.06
2022-12-23T19:57:51.955Z,100148.28
2022-12-23T20:03:43.065Z,100159.41
2022-12-23T20:09:29.794Z,100156.19
2022-12-23T20:15:17.083Z,100156.03
2022-12-23T20:21:04.457Z,100169.66
2022-12-23T20:26:58.175Z,100167.56
2022-12-23T20:32:46.877Z,100162.84
2022-12-23T20:38:34.915Z,100165.56
2022-12-23T20:44:34.452Z,100180.91
2022-12-23T20:50:27.047Z,100176.78
2022-12-23T20:56:17.317Z,100177.66
2022-12-23T21:02:04.033Z,100171.13
2022-12-23T21:07:51.191Z,100165.91
2022-12-23T21:13:43.929Z,100186.78
2022-12-23T21:19:30.678Z,100192.66
2022-12-23T21:25:17.529Z,100208.56
2022-12-23T21:31:06.236Z,100205.03
2022-12-23T21:36:54.364Z,100210.03
2022-12-23T21:42:42.589Z,100209.25
2022-12-23T21:48:31.747Z,100215.97
2022-12-23T21:54:21.371Z,100213.81
2022-12-23T22:00:08.932Z,100224.44
2022-12-23T22:06:08.355Z,100222.38
2022-12-23T22:11:57.328Z,100230.25
2022-12-23T22:17:44.173Z,100234.75
2022-12-23T22:23:30.908Z,100239.09
2022-12-23T22:29:17.884Z,100250.69
2022-12-23T22:35:05.396Z,100253.97
2022-12-23T22:41:00.179Z,100253.47
2022-12-23T22:46:56.534Z,100269.75
2022-12-23T22:53:03.393Z,100264.47
2022-12-23T22:59:41.940Z,100265.97
2022-12-23T23:05:30.512Z,100274.88
2022-12-23T23:11:17.682Z,100284.66
2022-12-23T23:17:05.915Z,100296.03
2022-12-23T23:22:53.280Z,100301.34
2022-12-23T23:28:41.043Z,100303.22
2022-12-23T23:34:28.845Z,100307.81
2022-12-23T23:40:15.709Z,100311.81
2022-12-23T23:46:02.710Z,100320.91
2022-12-23T23:51:50.212Z,100310.47
2022-12-23T23:57:37.018Z,100305.72
